createdAt,value
2018-09-02T00:01:06.021Z,15.54
2018-09-02T00:03:35.752Z,15.60
2018-09-02T00:06:05.213Z,15.54
2018-09-02T00:08:34.594Z,15.61
2018-09-02T00:11:04.425Z,15.62
2018-09-02T00:13:33.861Z,15.59
2018-09-02T00:16:03.252Z,15.60
2018-09-02T00:18:33.052Z,15.69
2018-09-02T00:21:02.806Z,15.64
2018-09-02T00:23:32.219Z,15.57
2018-09-02T00:26:02.046Z,15.66
2018-09-02T00:28:31.833Z,15.69
2018-09-02T00:31:01.556Z,15.61
2018-09-02T00:33:30.985Z,15.55
2018-09-02T00:36:00.422Z,15.54
2018-09-02T00:38:30.221Z,15.48
2018-09-02T00:40:59.606Z,15.43
2018-09-02T00:43:29.430Z,15.49
2018-09-02T00:45:58.856Z,15.51
2018-09-02T00:48:28.643Z,15.44
2018-09-02T00:50:58.427Z,15.48
2018-09-02T00:53:28.240Z,15.52
2018-09-02T00:55:57.640Z,15.56
2018-09-02T00:58:27.389Z,15.52
2018-09-02T01:00:57.125Z,15.51
2018-09-02T01:03:26.876Z,15.46
2018-09-02T01:05:56.300Z,15.54
2018-09-02T01:08:26.233Z,15.51
2018-09-02T01:10:55.620Z,15.53
2018-09-02T01:13:25.064Z,15.54
2018-09-02T01:15:54.760Z,15.54
2018-09-02T01:18:24.213Z,15.46
2018-09-02T01:20:53.602Z,15.46
2018-09-02T01:23:23.052Z,15.41
2018-09-02T01:25:52.521Z,15.61
2018-09-02T01:28:22.266Z,15.52
2018-09-02T01:30:52.000Z,15.49
2018-09-02T01:33:21.396Z,15.56
2018-09-02T01:35:51.131Z,15.49
2018-09-02T01:38:20.540Z,15.51
2018-09-02T01:40:50.304Z,15.53
2018-09-02T01:43:20.058Z,15.56
2018-09-02T01:45:49.772Z,15.57
2018-09-02T01:48:19.554Z,15.54
2018-09-02T01:50:48.915Z,15.56
2018-09-02T01:53:18.331Z,15.59
2018-09-02T01:55:47.752Z,15.73
2018-09-02T01:58:17.176Z,15.62
2018-09-02T02:00:46.920Z,15.60
2018-09-02T02:03:16.665Z,15.60
2018-09-02T02:05:46.469Z,15.61
2018-09-02T02:08:15.928Z,15.64
2018-09-02T02:10:45.715Z,15.62
2018-09-02T02:13:15.137Z,15.66
2018-09-02T02:15:44.581Z,15.70
2018-09-02T02:18:14.319Z,15.70
2018-09-02T02:20:44.487Z,15.69
2018-09-02T02:23:14.275Z,15.73
2018-09-02T02:25:43.754Z,15.75
2018-09-02T02:28:13.147Z,15.79
2018-09-02T02:30:42.982Z,15.84
2018-09-02T02:33:12.669Z,15.78
2018-09-02T02:35:42.117Z,15.72
2018-09-02T02:38:11.896Z,15.70
2018-09-02T02:40:41.729Z,15.83
2018-09-02T02:43:11.087Z,15.81
2018-09-02T02:45:40.554Z,15.76
2018-09-02T02:48:09.967Z,15.66
2018-09-02T02:50:39.794Z,15.61
2018-09-02T02:53:09.571Z,15.62
2018-09-02T02:55:39.357Z,15.65
2018-09-02T02:58:09.195Z,15.64
2018-09-02T03:00:38.637Z,15.62
2018-09-02T03:03:08.046Z,15.57
2018-09-02T03:05:38.013Z,15.51
2018-09-02T03:08:07.889Z,15.55
2018-09-02T03:10:37.418Z,15.44
2018-09-02T03:13:07.257Z,15.42
2018-09-02T03:15:37.124Z,15.35
2018-09-02T03:18:06.953Z,15.26
2018-09-02T03:20:36.740Z,15.23
2018-09-02T03:23:07.563Z,15.16
2018-09-02T03:25:37.043Z,15.09
2018-09-02T03:28:06.553Z,15.03
2018-09-02T03:30:36.345Z,14.99
2018-09-02T03:33:06.249Z,14.98
2018-09-02T03:35:35.675Z,15.02
2018-09-02T03:38:05.159Z,15.05
2018-09-02T03:40:34.561Z,15.14
2018-09-02T03:43:04.455Z,15.01
2018-09-02T03:45:33.866Z,14.95
2018-09-02T03:48:03.851Z,14.98
2018-09-02T03:50:33.275Z,14.91
2018-09-02T03:53:03.164Z,14.90
2018-09-02T03:55:32.618Z,15.01
2018-09-02T03:58:02.614Z,15.02
2018-09-02T04:00:31.985Z,15.01
2018-09-02T04:03:01.968Z,15.00
2018-09-02T04:05:31.709Z,15.01
2018-09-02T04:08:01.238Z,15.17
2018-09-02T04:10:30.660Z,15.06
2018-09-02T04:13:00.158Z,15.04
2018-09-02T04:15:29.605Z,15.02
2018-09-02T04:17:59.414Z,15.05
2018-09-02T04:20:33.223Z,15.13
2018-09-02T04:23:03.231Z,15.01
2018-09-02T04:25:33.795Z,14.99
2018-09-02T04:28:03.247Z,15.03
2018-09-02T04:30:32.646Z,15.10
2018-09-02T04:33:02.152Z,15.00
2018-09-02T04:35:31.601Z,15.08
2018-09-02T04:38:01.459Z,15.11
2018-09-02T04:40:31.062Z,15.10
2018-09-02T04:43:00.538Z,15.06
2018-09-02T04:45:30.331Z,15.12
2018-09-02T04:48:00.241Z,15.08
2018-09-02T04:50:30.025Z,15.05
2018-09-02T04:52:59.430Z,15.11
2018-09-02T04:55:28.903Z,15.03
2018-09-02T04:58:01.607Z,15.02
2018-09-02T05:00:31.075Z,15.02
2018-09-02T05:03:00.434Z,15.04
2018-09-02T05:05:30.175Z,15.14
2018-09-02T05:08:00.048Z,15.09
2018-09-02T05:10:29.446Z,15.14
2018-09-02T05:12:59.215Z,15.18
2018-09-02T05:15:29.074Z,15.23
2018-09-02T05:17:58.559Z,15.17
2018-09-02T05:20:27.991Z,15.20
2018-09-02T05:22:57.798Z,15.16
2018-09-02T05:25:27.176Z,15.13
2018-09-02T05:27:56.661Z,15.15
2018-09-02T05:30:26.638Z,15.22
2018-09-02T05:32:56.114Z,15.13
2018-09-02T05:35:25.558Z,15.18
2018-09-02T05:37:55.499Z,15.22
2018-09-02T05:40:25.293Z,15.34
2018-09-02T05:42:55.051Z,15.22
2018-09-02T05:45:25.015Z,15.27
2018-09-02T05:47:58.474Z,15.16
2018-09-02T05:50:27.840Z,15.16
2018-09-02T05:52:57.559Z,15.23
2018-09-02T05:55:26.982Z,15.21
2018-09-02T05:57:56.669Z,15.25
2018-09-02T06:00:26.102Z,15.26
2018-09-02T06:02:56.074Z,15.35
2018-09-02T06:05:26.018Z,15.30
2018-09-02T06:07:57.387Z,15.29
2018-09-02T06:10:27.202Z,15.29
2018-09-02T06:12:56.941Z,15.21
2018-09-02T06:15:26.324Z,15.13
2018-09-02T06:17:55.731Z,15.04
2018-09-02T06:20:25.122Z,15.03
2018-09-02T06:22:54.842Z,15.07
2018-09-02T06:25:24.602Z,15.01
2018-09-02T06:27:54.072Z,15.00
2018-09-02T06:30:23.610Z,14.97
2018-09-02T06:32:53.501Z,14.94
2018-09-02T06:35:23.119Z,15.00
2018-09-02T06:37:53.170Z,14.99
2018-09-02T06:40:22.644Z,15.01
2018-09-02T06:42:52.056Z,15.06
2018-09-02T06:45:21.570Z,15.04
2018-09-02T06:47:51.113Z,15.10
2018-09-02T06:50:20.842Z,15.19
2018-09-02T06:52:50.318Z,15.21
2018-09-02T06:55:19.705Z,15.24
2018-09-02T06:57:49.321Z,15.29
2018-09-02T07:00:19.069Z,15.24
2018-09-02T07:02:48.669Z,15.20
2018-09-02T07:05:18.372Z,15.22
2018-09-02T07:07:47.825Z,15.43
2018-09-02T07:10:17.628Z,15.45
2018-09-02T07:12:47.082Z,15.39
2018-09-02T07:15:16.485Z,15.32
2018-09-02T07:17:46.279Z,15.47
2018-09-02T07:20:16.135Z,15.65
2018-09-02T07:22:45.533Z,15.72
2018-09-02T07:25:14.930Z,15.64
2018-09-02T07:27:44.766Z,15.58
2018-09-02T07:30:14.398Z,15.60
2018-09-02T07:32:44.268Z,15.59
2018-09-02T07:35:14.135Z,15.66
2018-09-02T07:37:43.611Z,15.80
2018-09-02T07:40:13.444Z,15.76
2018-09-02T07:42:43.345Z,15.87
2018-09-02T07:45:13.471Z,15.77
2018-09-02T07:47:43.011Z,15.90
2018-09-02T07:50:12.922Z,15.77
2018-09-02T07:52:42.305Z,15.90
2018-09-02T07:55:11.793Z,15.77
2018-09-02T07:57:41.197Z,15.65
2018-09-02T08:00:11.365Z,15.64
2018-09-02T08:02:41.481Z,15.59
2018-09-02T08:05:11.432Z,15.63
2018-09-02T08:07:41.237Z,15.72
2018-09-02T08:10:10.969Z,15.66
2018-09-02T08:12:40.524Z,15.72
2018-09-02T08:15:10.239Z,15.75
2018-09-02T08:17:40.015Z,15.73
2018-09-02T08:20:09.861Z,15.95
2018-09-02T08:22:39.358Z,16.19
2018-09-02T08:25:09.792Z,16.30
2018-09-02T08:27:39.698Z,16.23
2018-09-02T08:30:09.102Z,16.11
2018-09-02T08:32:38.959Z,16.24
2018-09-02T08:35:08.765Z,16.20
2018-09-02T08:37:38.129Z,16.13
2018-09-02T08:40:08.294Z,16.13
2018-09-02T08:42:38.053Z,16.16
2018-09-02T08:45:08.589Z,16.19
2018-09-02T08:47:38.000Z,16.21
2018-09-02T08:50:07.585Z,16.47
2018-09-02T08:52:37.334Z,16.49
2018-09-02T08:55:06.812Z,16.73
2018-09-02T08:57:36.629Z,17.05
2018-09-02T09:00:06.857Z,16.96
2018-09-02T09:02:36.351Z,17.18
2018-09-02T09:05:06.769Z,17.33
2018-09-02T09:07:36.375Z,17.28
2018-09-02T09:10:06.593Z,17.69
2018-09-02T09:12:36.424Z,17.83
2018-09-02T09:15:06.605Z,18.06
2018-09-02T09:17:36.026Z,17.63
2018-09-02T09:20:06.010Z,17.25
2018-09-02T09:22:36.324Z,17.20
2018-09-02T09:25:07.003Z,17.32
2018-09-02T09:27:36.788Z,17.32
2018-09-02T09:30:07.477Z,17.52
2018-09-02T09:32:37.345Z,17.43
2018-09-02T09:35:07.324Z,17.38
2018-09-02T09:37:37.349Z,17.37
2018-09-02T09:40:07.209Z,17.20
2018-09-02T09:42:37.185Z,17.08
2018-09-02T09:45:07.189Z,17.07
2018-09-02T09:47:36.601Z,16.93
2018-09-02T09:50:07.257Z,16.85
2018-09-02T09:52:37.104Z,16.91
2018-09-02T09:55:07.109Z,16.97
2018-09-02T09:57:37.225Z,17.12
2018-09-02T10:00:07.543Z,17.19
2018-09-02T10:02:37.144Z,17.31
2018-09-02T10:05:06.984Z,17.19
2018-09-02T10:07:36.568Z,17.43
2018-09-02T10:10:06.545Z,17.66
2018-09-02T10:12:36.316Z,17.68
2018-09-02T10:15:05.846Z,17.69
2018-09-02T10:17:35.568Z,17.47
2018-09-02T10:20:05.128Z,17.55
2018-09-02T10:22:34.624Z,17.60
2018-09-02T10:25:04.473Z,17.58
2018-09-02T10:27:33.921Z,17.75
2018-09-02T10:30:03.396Z,17.80
2018-09-02T10:32:32.948Z,18.22
2018-09-02T10:35:02.969Z,18.32
2018-09-02T10:37:32.414Z,18.95
2018-09-02T10:40:02.512Z,19.05
2018-09-02T10:42:32.392Z,19.54
2018-09-02T10:45:02.453Z,20.38
2018-09-02T10:47:34.133Z,20.75
2018-09-02T10:50:04.152Z,21.17
2018-09-02T10:52:34.789Z,20.75
2018-09-02T10:55:04.740Z,20.76
2018-09-02T10:57:36.282Z,19.70
2018-09-02T11:00:06.882Z,20.75
2018-09-02T11:02:36.683Z,19.97
2018-09-02T11:05:07.164Z,19.35
2018-09-02T11:07:37.183Z,19.61
2018-09-02T11:10:07.035Z,19.72
2018-09-02T11:12:36.819Z,19.88
2018-09-02T11:15:07.283Z,19.32
2018-09-02T11:17:36.875Z,19.06
2018-09-02T11:20:07.305Z,19.39
2018-09-02T11:22:36.842Z,19.32
2018-09-02T11:25:06.947Z,19.80
2018-09-02T11:27:36.685Z,20.21
2018-09-02T11:30:06.564Z,20.49
2018-09-02T11:32:36.337Z,20.74
2018-09-02T11:35:06.235Z,20.12
2018-09-02T11:37:35.672Z,20.92
2018-09-02T11:40:05.479Z,21.94
2018-09-02T11:42:34.929Z,21.84
2018-09-02T11:45:04.472Z,21.42
2018-09-02T11:47:34.481Z,22.09
2018-09-02T11:50:05.175Z,22.02
2018-09-02T11:52:34.909Z,21.05
2018-09-02T11:55:04.436Z,20.65
2018-09-02T11:57:33.940Z,21.04
2018-09-02T12:00:03.928Z,21.61
2018-09-02T12:02:33.441Z,22.08
2018-09-02T12:05:03.539Z,22.15
2018-09-02T12:07:32.955Z,22.67
2018-09-02T12:10:02.434Z,22.31
2018-09-02T12:12:31.835Z,22.25
2018-09-02T12:15:01.356Z,21.74
2018-09-02T12:17:31.423Z,21.59
2018-09-02T12:20:00.824Z,21.21
2018-09-02T12:22:31.122Z,21.48
2018-09-02T12:25:00.732Z,22.08
2018-09-02T12:27:30.289Z,22.09
2018-09-02T12:30:00.174Z,21.95
2018-09-02T12:32:30.679Z,22.14
2018-09-02T12:35:00.451Z,22.17
2018-09-02T12:37:33.597Z,22.79
2018-09-02T12:40:03.242Z,23.59
2018-09-02T12:42:33.116Z,23.28
2018-09-02T12:45:04.342Z,22.98
2018-09-02T12:47:34.174Z,24.03
2018-09-02T12:50:03.770Z,23.40
2018-09-02T12:52:33.745Z,23.84
2018-09-02T12:55:04.797Z,23.87
2018-09-02T12:57:40.090Z,23.27
2018-09-02T13:00:15.938Z,22.92
2018-09-02T13:02:47.088Z,22.39
2018-09-02T13:05:17.470Z,22.98
2018-09-02T13:07:47.698Z,22.88
2018-09-02T13:10:17.507Z,22.37
2018-09-02T13:13:13.248Z,22.55
2018-09-02T13:15:45.594Z,22.89
2018-09-02T13:18:15.906Z,23.01
2018-09-02T13:20:55.738Z,23.05
2018-09-02T13:23:25.612Z,23.05
2018-09-02T13:25:55.218Z,22.96
2018-09-02T13:28:27.279Z,22.58
2018-09-02T13:30:57.940Z,22.91
2018-09-02T13:33:28.120Z,23.24
2018-09-02T13:35:57.895Z,23.37
2018-09-02T13:38:27.627Z,23.45
2018-09-02T13:40:57.202Z,23.47
2018-09-02T13:43:26.867Z,23.52
2018-09-02T13:45:56.530Z,24.10
2018-09-02T13:48:26.156Z,24.30
2018-09-02T13:50:56.295Z,24.80
2018-09-02T13:53:26.002Z,25.52
2018-09-02T13:55:56.240Z,25.53
2018-09-02T13:58:26.275Z,25.84
2018-09-02T14:00:55.952Z,25.22
2018-09-02T14:03:25.501Z,25.59
2018-09-02T14:05:55.442Z,26.01
2018-09-02T14:08:25.210Z,25.91
2018-09-02T14:10:55.134Z,24.66
2018-09-02T14:13:25.187Z,24.51
2018-09-02T14:15:55.307Z,24.62
2018-09-02T14:18:24.894Z,24.73
2018-09-02T14:20:54.566Z,25.04
2018-09-02T14:23:24.758Z,25.26
2018-09-02T14:25:54.887Z,25.38
2018-09-02T14:28:24.636Z,25.26
2018-09-02T14:30:54.705Z,25.08
2018-09-02T14:33:24.733Z,25.12
2018-09-02T14:35:55.311Z,25.09
2018-09-02T14:38:24.778Z,24.98
2018-09-02T14:40:55.111Z,24.26
2018-09-02T14:43:25.008Z,23.87
2018-09-02T14:45:55.087Z,23.95
2018-09-02T14:48:24.790Z,24.00
2018-09-02T14:50:54.841Z,24.26
2018-09-02T14:53:24.886Z,24.67
2018-09-02T14:55:55.957Z,24.72
2018-09-02T14:58:26.018Z,25.10
2018-09-02T15:00:57.639Z,25.01
2018-09-02T15:03:27.230Z,24.78
2018-09-02T15:05:56.683Z,24.62
2018-09-02T15:08:28.430Z,24.60
2018-09-02T15:10:58.493Z,24.40
2018-09-02T15:13:28.251Z,24.49
2018-09-02T15:15:59.822Z,24.62
2018-09-02T15:18:29.661Z,24.64
2018-09-02T15:21:02.076Z,24.39
2018-09-02T15:23:32.680Z,24.23
2018-09-02T15:26:03.250Z,24.49
2018-09-02T15:28:37.951Z,24.53
2018-09-02T15:31:08.582Z,24.37
2018-09-02T15:33:38.966Z,24.43
2018-09-02T15:36:09.337Z,24.44
2018-09-02T15:38:39.980Z,24.31
2018-09-02T15:41:10.539Z,24.23
2018-09-02T15:43:41.476Z,24.15
2018-09-02T15:46:11.870Z,24.07
2018-09-02T15:48:41.605Z,24.06
2018-09-02T15:51:11.885Z,23.78
2018-09-02T15:53:41.839Z,23.75
2018-09-02T15:56:11.280Z,23.67
2018-09-02T15:58:41.205Z,23.67
2018-09-02T16:01:11.430Z,23.64
2018-09-02T16:03:41.510Z,23.49
2018-09-02T16:06:11.381Z,23.46
2018-09-02T16:08:41.184Z,23.34
2018-09-02T16:11:11.515Z,23.15
2018-09-02T16:13:41.049Z,23.06
2018-09-02T16:16:12.109Z,22.97
2018-09-02T16:18:41.853Z,22.98
2018-09-02T16:21:12.011Z,22.98
2018-09-02T16:23:41.859Z,22.98
2018-09-02T16:26:12.441Z,22.94
2018-09-02T16:28:42.781Z,22.95
2018-09-02T16:31:13.288Z,22.88
2018-09-02T16:33:43.961Z,22.85
2018-09-02T16:36:13.948Z,22.80
2018-09-02T16:38:44.249Z,22.80
2018-09-02T16:41:14.510Z,22.82
2018-09-02T16:43:44.429Z,22.66
2018-09-02T16:46:14.244Z,22.56
2018-09-02T16:48:43.875Z,22.55
2018-09-02T16:51:13.353Z,22.60
2018-09-02T16:53:42.814Z,22.60
2018-09-02T16:56:12.387Z,22.59
2018-09-02T16:58:41.984Z,22.58
2018-09-02T17:01:14.979Z,22.52
2018-09-02T17:03:48.043Z,22.53
2018-09-02T17:06:18.884Z,22.51
2018-09-02T17:08:51.017Z,22.42
2018-09-02T17:11:20.795Z,22.27
2018-09-02T17:13:54.641Z,21.99
2018-09-02T17:16:24.863Z,21.90
2018-09-02T17:18:58.667Z,21.76
2018-09-02T17:21:29.112Z,21.63
2018-09-02T17:23:59.521Z,21.46
2018-09-02T17:26:29.109Z,21.28
2018-09-02T17:29:00.755Z,21.12
2018-09-02T17:31:30.577Z,21.24
2018-09-02T17:34:03.973Z,21.14
2018-09-02T17:36:36.244Z,21.12
2018-09-02T17:39:09.821Z,21.15
2018-09-02T17:41:40.386Z,21.11
2018-09-02T17:44:11.585Z,21.00
2018-09-02T17:46:41.941Z,20.93
2018-09-02T17:49:12.357Z,20.88
2018-09-02T17:51:42.095Z,20.86
2018-09-02T17:54:12.500Z,20.88
2018-09-02T17:56:42.755Z,20.83
2018-09-02T17:59:12.606Z,20.62
2018-09-02T18:01:42.942Z,20.66
2018-09-02T18:04:13.205Z,20.80
2018-09-02T18:06:43.049Z,20.80
2018-09-02T18:09:13.131Z,20.72
2018-09-02T18:11:43.600Z,20.87
2018-09-02T18:14:13.562Z,20.90
2018-09-02T18:16:43.964Z,20.75
2018-09-02T18:19:14.309Z,20.70
2018-09-02T18:21:44.583Z,20.64
2018-09-02T18:24:14.808Z,20.67
2018-09-02T18:26:44.871Z,20.65
2018-09-02T18:29:15.069Z,20.65
2018-09-02T18:31:45.460Z,20.63
2018-09-02T18:34:15.575Z,20.65
2018-09-02T18:36:45.805Z,20.71
2018-09-02T18:39:15.628Z,20.81
2018-09-02T18:41:45.960Z,20.68
2018-09-02T18:44:16.237Z,20.62
2018-09-02T18:46:46.684Z,20.54
2018-09-02T18:49:17.071Z,20.56
2018-09-02T18:51:47.034Z,20.61
2018-09-02T18:54:16.532Z,20.64
2018-09-02T18:56:45.936Z,20.65
2018-09-02T18:59:15.474Z,20.68
2018-09-02T19:01:44.958Z,20.72
2018-09-02T19:04:14.372Z,20.76
2018-09-02T19:06:44.393Z,20.63
2018-09-02T19:09:14.160Z,20.60
2018-09-02T19:11:43.859Z,20.28
2018-09-02T19:14:13.303Z,20.50
2018-09-02T19:16:42.752Z,20.41
2018-09-02T19:19:12.727Z,20.46
2018-09-02T19:21:42.199Z,20.45
2018-09-02T19:24:12.100Z,20.34
2018-09-02T19:26:41.471Z,20.26
2018-09-02T19:29:10.988Z,20.22
2018-09-02T19:31:40.995Z,20.12
2018-09-02T19:34:11.657Z,20.03
2018-09-02T19:36:41.164Z,20.02
2018-09-02T19:39:11.247Z,20.03
2018-09-02T19:41:42.385Z,20.10
2018-09-02T19:44:12.622Z,20.10
2018-09-02T19:46:42.617Z,20.07
2018-09-02T19:49:12.655Z,20.08
2018-09-02T19:51:42.693Z,20.00
2018-09-02T19:54:12.673Z,19.90
2018-09-02T19:56:42.492Z,19.81
2018-09-02T19:59:12.298Z,19.75
2018-09-02T20:01:41.730Z,19.67
2018-09-02T20:04:11.282Z,19.63
2018-09-02T20:06:41.244Z,19.56
2018-09-02T20:09:12.774Z,19.50
2018-09-02T20:11:42.580Z,19.42
2018-09-02T20:14:13.354Z,19.45
2018-09-02T20:16:43.219Z,19.38
2018-09-02T20:19:13.200Z,19.35
2018-09-02T20:21:43.625Z,19.47
2018-09-02T20:24:13.629Z,19.45
2018-09-02T20:26:43.660Z,19.42
2018-09-02T20:29:13.232Z,19.31
2018-09-02T20:31:42.804Z,19.31
2018-09-02T20:34:12.766Z,19.22
2018-09-02T20:36:42.802Z,19.12
2018-09-02T20:39:12.552Z,19.01
2018-09-02T20:41:42.125Z,19.26
2018-09-02T20:44:11.787Z,19.29
2018-09-02T20:46:41.308Z,19.23
2018-09-02T20:49:10.848Z,19.24
2018-09-02T20:51:40.893Z,19.29
2018-09-02T20:54:10.781Z,19.36
2018-09-02T20:56:40.651Z,19.53
2018-09-02T20:59:10.590Z,19.69
2018-09-02T21:01:41.073Z,19.64
2018-09-02T21:04:11.075Z,19.76
2018-09-02T21:06:40.575Z,19.66
2018-09-02T21:09:13.551Z,19.70
2018-09-02T21:11:43.487Z,19.65
2018-09-02T21:14:12.980Z,19.75
2018-09-02T21:16:42.584Z,19.73
2018-09-02T21:19:12.491Z,19.63
2018-09-02T21:21:42.415Z,19.57
2018-09-02T21:24:12.184Z,19.55
2018-09-02T21:26:41.623Z,19.66
2018-09-02T21:29:11.108Z,19.68
2018-09-02T21:31:40.530Z,19.71
2018-09-02T21:34:10.357Z,19.61
2018-09-02T21:36:40.133Z,19.70
2018-09-02T21:39:09.939Z,19.63
2018-09-02T21:41:39.754Z,19.52
2018-09-02T21:44:09.546Z,19.48
2018-09-02T21:46:39.007Z,19.47
2018-09-02T21:49:08.458Z,19.42
2018-09-02T21:51:38.253Z,19.36
2018-09-02T21:54:07.658Z,19.37
2018-09-02T21:56:37.739Z,19.48
2018-09-02T21:59:07.101Z,19.47
2018-09-02T22:01:36.502Z,19.54
2018-09-02T22:04:05.923Z,19.47
2018-09-02T22:06:35.802Z,19.43
2018-09-02T22:09:14.504Z,19.50
2018-09-02T22:11:44.672Z,19.41
2018-09-02T22:14:14.710Z,19.49
2018-09-02T22:16:45.460Z,19.54
2018-09-02T22:19:14.835Z,19.43
2018-09-02T22:21:44.660Z,19.38
2018-09-02T22:24:14.111Z,19.41
2018-09-02T22:26:43.880Z,19.37
2018-09-02T22:29:13.383Z,19.23
2018-09-02T22:31:43.131Z,19.24
2018-09-02T22:34:12.613Z,19.32
2018-09-02T22:36:42.382Z,19.25
2018-09-02T22:39:12.194Z,19.22
2018-09-02T22:41:42.099Z,19.17
2018-09-02T22:44:11.998Z,19.09
2018-09-02T22:46:41.424Z,19.20
2018-09-02T22:49:10.782Z,19.12
2018-09-02T22:51:40.194Z,18.96
2018-09-02T22:54:09.549Z,18.86
2018-09-02T22:56:38.976Z,18.81
2018-09-02T22:59:08.731Z,18.87
2018-09-02T23:01:38.496Z,18.83
2018-09-02T23:04:08.239Z,18.85
2018-09-02T23:06:37.657Z,18.79
2018-09-02T23:09:08.720Z,18.71
2018-09-02T23:11:38.163Z,18.65
2018-09-02T23:14:07.942Z,18.71
2018-09-02T23:16:37.405Z,18.73
2018-09-02T23:19:07.144Z,18.63
2018-09-02T23:21:36.941Z,18.51
2018-09-02T23:24:06.721Z,18.35
2018-09-02T23:26:36.444Z,18.20
2018-09-02T23:29:05.929Z,18.41
2018-09-02T23:31:35.599Z,18.42
2018-09-02T23:34:05.550Z,18.43
2018-09-02T23:36:34.944Z,18.45
2018-09-02T23:39:06.534Z,18.42
2018-09-02T23:41:36.302Z,18.40
2018-09-02T23:44:06.070Z,18.49
2018-09-02T23:46:35.939Z,18.34
2018-09-02T23:49:05.583Z,18.28
2018-09-02T23:51:35.389Z,18.24
2018-09-02T23:54:05.257Z,18.19
2018-09-02T23:56:35.070Z,18.16
2018-09-02T23:59:04.990Z,18.32
